Time;durP1;ratioP1;P1;durP2;ratioP2;P2;SDS_P1;SDS_P2;PMS_P1;PMS_P2;Temp;Humidity;BMP_temperature;BMP_pressure;BME280_temperature;BME280_humidity;BME280_pressure;Samples;Min_cycle;Max_cycle;Signal;HPM_P1;HPM_P2
2022/03/25 07:56:44;;;;;;;123.30;55.50;;;13.60;99.90;;;;;;5619054;23;20868;-50
2022/03/25 07:59:11;;;;;;;110.03;53.43;;;13.90;99.90;;;;;;4988434;28;20549;-51
2022/03/25 08:01:37;;;;;;;99.40;52.60;;;14.10;99.90;;;;;;4994235;28;20457;-50
2022/03/25 08:04:03;;;;;;;113.83;54.67;;;14.10;99.90;;;;;;4992029;28;20447;-51
2022/03/25 08:06:28;;;;;;;116.77;55.07;;;14.10;99.90;;;;;;4995593;28;20187;-50
2022/03/25 08:08:54;;;;;;;106.97;53.07;;;14.30;99.90;;;;;;4990426;28;20193;-50
2022/03/25 08:11:20;;;;;;;110.10;51.83;;;14.60;99.90;;;;;;4988847;28;20200;-50
2022/03/25 08:13:49;;;;;;;101.30;52.97;;;14.80;99.90;;;;;;4991777;28;20962;-50
2022/03/25 08:16:16;;;;;;;100.97;50.10;;;15.00;99.90;;;;;;4991774;28;20947;-51
2022/03/25 08:18:43;;;;;;;105.67;51.27;;;15.10;99.90;;;;;;4989976;28;20439;-50
2022/03/25 08:21:09;;;;;;;91.50;47.90;;;15.20;99.90;;;;;;4990329;28;20460;-51
2022/03/25 08:29:03;;;;;;;88.60;46.07;;;15.20;99.90;;;;;;4993420;28;20535;-51
2022/03/25 08:31:29;;;;;;;87.77;45.00;;;15.50;99.90;;;;;;4990937;28;20511;-52
2022/03/25 08:33:55;;;;;;;88.60;45.77;;;15.80;99.90;;;;;;4997487;28;20566;-51
2022/03/25 08:36:21;;;;;;;82.97;45.13;;;16.00;99.90;;;;;;4995730;28;20279;-51
2022/03/25 08:38:46;;;;;;;79.97;44.20;;;16.30;99.90;;;;;;4989937;28;20522;-50
2022/03/25 08:41:13;;;;;;;92.77;44.73;;;16.60;99.90;;;;;;4991752;28;20380;-50
2022/03/25 08:43:39;;;;;;;85.13;43.47;;;17.10;99.90;;;;;;4993577;28;20188;-50
2022/03/25 08:46:07;;;;;;;81.23;43.47;;;17.30;99.90;;;;;;4990942;28;20817;-50
2022/03/25 08:48:33;;;;;;;77.30;42.27;;;17.40;99.90;;;;;;4991451;28;20192;-50
2022/03/25 08:50:59;;;;;;;77.20;38.40;;;17.50;99.90;;;;;;4989981;28;20468;-50
2022/03/25 08:53:24;;;;;;;73.63;36.63;;;17.30;99.90;;;;;;4991601;28;20211;-50
2022/03/25 08:55:50;;;;;;;62.67;35.50;;;17.40;99.90;;;;;;4991019;28;20528;-50
2022/03/25 08:58:15;;;;;;;64.87;33.67;;;17.50;99.90;;;;;;4994966;28;20291;-50
2022/03/25 09:00:41;;;;;;;62.57;33.23;;;17.60;99.90;;;;;;4990920;28;20681;-50
2022/03/25 09:03:07;;;;;;;67.63;34.53;;;17.30;99.90;;;;;;4991427;28;20200;-50
2022/03/25 09:05:32;;;;;;;72.30;35.50;;;17.00;99.90;;;;;;4992084;28;21017;-52
2022/03/25 09:07:58;;;;;;;68.37;34.63;;;16.80;99.90;;;;;;4991579;28;20260;-51
2022/03/25 09:10:24;;;;;;;70.33;36.30;;;16.80;99.90;;;;;;4990638;28;20188;-51
2022/03/25 09:12:50;;;;;;;73.73;34.80;;;17.10;99.90;;;;;;4992250;28;20347;-50
2022/03/25 09:15:16;;;;;;;84.40;38.27;;;17.60;99.90;;;;;;4990757;28;20582;-51
2022/03/25 09:17:45;;;;;;;67.53;37.57;;;17.90;99.90;;;;;;4987481;28;20923;-50
2022/03/25 09:20:12;;;;;;;74.87;35.27;;;18.00;99.90;;;;;;4988179;28;20583;-51
2022/03/25 09:22:38;;;;;;;68.80;36.93;;;18.20;99.90;;;;;;4991150;28;20432;-51
2022/03/25 09:25:04;;;;;;;63.07;35.00;;;18.50;99.90;;;;;;4991674;28;20439;-51
2022/03/25 09:27:30;;;;;;;65.00;34.67;;;18.60;99.90;;;;;;4990860;28;20215;-50
2022/03/25 09:29:56;;;;;;;69.63;36.93;;;18.60;99.90;;;;;;4993854;28;20820;-50
2022/03/25 09:32:21;;;;;;;65.93;36.07;;;18.10;99.90;;;;;;4992715;28;20192;-51
2022/03/25 09:37:34;;;;;;;74.20;37.83;;;17.60;99.90;;;;;;4989978;28;20323;-51
2022/03/25 09:40:00;;;;;;;62.73;35.97;;;17.70;99.90;;;;;;4990065;28;20494;-51
2022/03/25 09:42:28;;;;;;;68.23;35.57;;;17.90;99.90;;;;;;4991281;28;20436;-51
2022/03/25 09:44:53;;;;;;;66.10;37.43;;;18.00;99.90;;;;;;4991175;28;20184;-51
2022/03/25 09:47:20;;;;;;;67.60;38.10;;;17.80;99.90;;;;;;4988872;28;20490;-51
2022/03/25 09:49:46;;;;;;;84.63;38.97;;;17.60;99.90;;;;;;4991160;28;20226;-50
2022/03/25 09:52:11;;;;;;;84.73;37.00;;;17.70;99.90;;;;;;4989424;28;20918;-50
2022/03/25 09:54:37;;;;;;;74.33;39.93;;;17.70;99.90;;;;;;4991102;28;20192;-50
2022/03/25 09:57:03;;;;;;;69.50;36.83;;;17.50;99.90;;;;;;4990431;28;20184;-50
2022/03/25 09:59:29;;;;;;;68.37;35.80;;;17.30;99.90;;;;;;4991251;28;20228;-52
2022/03/25 10:01:55;;;;;;;77.63;35.50;;;17.30;99.90;;;;;;4990955;28;20776;-52
2022/03/25 10:04:36;;;;;;;68.03;36.77;;;17.30;99.90;;;;;;4992311;28;20173;-52
2022/03/25 10:07:17;;;;;;;71.10;36.50;;;17.40;99.90;;;;;;4992361;28;20613;-51
2022/03/25 10:09:44;;;;;;;66.10;35.80;;;17.40;99.90;;;;;;4990813;28;20428;-51
2022/03/25 10:12:19;;;;;;;61.25;33.60;;;17.40;99.90;;;;;;4988037;28;20432;-52
2022/03/25 10:14:47;;;;;;;61.03;33.80;;;17.40;99.90;;;;;;4994250;28;20184;-50
2022/03/25 10:17:12;;;;;;;60.97;30.67;;;17.40;99.90;;;;;;4992179;28;20439;-51
2022/03/25 10:19:48;;;;;;;62.10;28.87;;;17.50;99.90;;;;;;4988950;28;20807;-50
2022/03/25 10:22:16;;;;;;;55.47;27.87;;;17.60;99.90;;;;;;4994382;28;20195;-51
2022/03/25 10:24:46;;;;;;;56.93;30.60;;;17.80;99.90;;;;;;4993223;28;20442;-50
2022/03/25 10:27:13;;;;;;;61.97;29.03;;;17.90;99.90;;;;;;4988353;28;20476;-50
2022/03/25 10:29:38;;;;;;;56.30;30.20;;;18.00;99.90;;;;;;4989102;28;20446;-50
2022/03/25 10:32:13;;;;;;;57.03;31.27;;;17.90;99.90;;;;;;4985037;28;20979;-51
2022/03/25 10:34:41;;;;;;;58.03;31.67;;;18.10;99.90;;;;;;4989020;28;20188;-51
2022/03/25 10:37:15;;;;;;;63.23;31.93;;;18.30;99.90;;;;;;4988609;28;20450;-51
2022/03/25 10:39:51;;;;;;;56.10;31.10;;;18.40;99.90;;;;;;4991254;28;21294;-51
2022/03/25 10:42:17;;;;;;;46.87;26.20;;;18.40;99.90;;;;;;4982747;28;20987;-51
2022/03/25 10:44:43;;;;;;;53.67;27.93;;;18.40;99.90;;;;;;4985329;28;20440;-51
2022/03/25 10:47:29;;;;;;;55.70;29.20;;;18.70;99.90;;;;;;4986154;28;20188;-51
2022/03/25 10:50:12;;;;;;;55.17;28.37;;;19.20;99.90;;;;;;4988271;28;20183;-51
2022/03/25 10:52:38;;;;;;;55.77;30.27;;;19.70;99.90;;;;;;4985306;28;20542;-51
2022/03/25 10:55:22;;;;;;;43.43;23.47;;;20.10;99.90;;;;;;4991345;28;20518;-52
2022/03/25 10:57:48;;;;;;;43.97;23.33;;;20.90;99.90;;;;;;4981215;28;20235;-50
2022/03/25 11:00:14;;;;;;;52.80;27.00;;;21.40;99.90;;;;;;4988807;28;20513;-50
2022/03/25 11:02:40;;;;;;;47.10;26.57;;;21.50;99.90;;;;;;4987139;28;21087;-55
2022/03/25 11:05:09;;;;;;;40.87;24.20;;;22.10;99.90;;;;;;4990794;28;20227;-50
2022/03/25 11:07:39;;;;;;;38.40;22.40;;;22.20;99.90;;;;;;4987032;28;20490;-51
2022/03/25 11:10:05;;;;;;;40.67;20.20;;;22.40;99.90;;;;;;4990451;28;20460;-51
2022/03/25 11:12:32;;;;;;;36.60;21.20;;;22.50;99.90;;;;;;4991079;28;20443;-51
2022/03/25 11:14:59;;;;;;;39.83;23.57;;;22.50;99.90;;;;;;4990919;28;20215;-51
2022/03/25 11:17:26;;;;;;;43.43;26.37;;;22.70;99.90;;;;;;4990855;28;20428;-50
2022/03/25 11:19:53;;;;;;;46.10;25.37;;;22.60;99.90;;;;;;4990045;28;20517;-51
2022/03/25 11:22:22;;;;;;;47.83;26.43;;;22.50;99.90;;;;;;4990277;28;20451;-50
2022/03/25 11:24:53;;;;;;;44.93;23.90;;;22.50;99.90;;;;;;4990038;28;20976;-51
2022/03/25 11:27:29;;;;;;;40.60;23.00;;;22.80;99.90;;;;;;4990236;28;20474;-51
2022/03/25 11:30:03;;;;;;;47.83;25.70;;;23.00;99.90;;;;;;4990944;28;20442;-51
2022/03/25 11:32:29;;;;;;;49.87;27.27;;;23.20;99.90;;;;;;4990766;28;20769;-51
2022/03/25 11:34:55;;;;;;;40.23;23.30;;;23.20;99.90;;;;;;4991073;28;20451;-51
2022/03/25 11:37:30;;;;;;;35.60;22.43;;;23.10;99.90;;;;;;4990740;28;20475;-50
2022/03/25 11:40:18;;;;;;;38.27;22.07;;;23.30;99.90;;;;;;4990551;28;20266;-51
2022/03/25 11:42:49;;;;;;;38.50;21.63;;;23.30;99.90;;;;;;4990120;28;20443;-50
2022/03/25 11:45:20;;;;;;;37.10;21.40;;;23.50;99.90;;;;;;4991037;28;20477;-50
2022/03/25 11:48:07;;;;;;;36.67;21.10;;;23.40;99.90;;;;;;4991035;28;20431;-51
2022/03/25 11:50:35;;;;;;;38.80;22.37;;;23.50;99.90;;;;;;4993180;28;20469;-51
2022/03/25 11:53:10;;;;;;;41.40;23.60;;;23.70;99.90;;;;;;4992469;28;20443;-51
2022/03/25 11:56:09;;;;;;;42.83;22.40;;;23.50;99.90;;;;;;4992612;28;20446;-51
2022/03/25 11:58:56;;;;;;;42.80;23.20;;;23.50;99.90;;;;;;4993247;28;20628;-52
2022/03/25 12:01:23;;;;;;;40.20;23.63;;;24.00;99.90;;;;;;4993018;28;20458;-52
2022/03/25 12:03:52;;;;;;;40.03;23.55;;;24.20;99.90;;;;;;4993076;28;20825;-51
2022/03/25 12:06:22;;;;;;;37.70;21.17;;;24.30;99.90;;;;;;4993832;28;20199;-52
2022/03/25 12:08:57;;;;;;;39.67;20.87;;;24.70;99.90;;;;;;4993827;28;20431;-51
2022/03/25 12:11:55;;;;;;;43.87;22.20;;;24.80;99.90;;;;;;4993651;28;20471;-51
2022/03/25 12:14:31;;;;;;;39.97;19.33;;;25.20;99.90;;;;;;4974420;28;20420;-53
2022/03/25 12:16:59;;;;;;;35.97;18.67;;;25.00;99.90;;;;;;4977012;28;20450;-51
2022/03/25 12:19:28;;;;;;;37.87;21.63;;;24.90;99.90;;;;;;4993546;28;20912;-51
2022/03/25 12:21:58;;;;;;;34.10;19.77;;;24.80;99.90;;;;;;4993556;28;20412;-51
2022/03/25 12:24:25;;;;;;;36.00;19.13;;;24.60;99.90;;;;;;4993603;28;20427;-53
2022/03/25 12:27:00;;;;;;;37.50;19.30;;;24.90;99.90;;;;;;4993513;28;20932;-53
2022/03/25 12:29:29;;;;;;;30.37;18.17;;;25.10;99.90;;;;;;4987707;28;20446;-53
2022/03/25 12:31:55;;;;;;;33.17;19.00;;;25.00;99.90;;;;;;4992449;28;20466;-53
2022/03/25 12:34:44;;;;;;;32.43;16.97;;;24.70;99.90;;;;;;4993399;28;20506;-53
2022/03/25 12:37:34;;;;;;;31.00;19.07;;;24.60;99.90;;;;;;4996391;28;20458;-53
2022/03/25 12:40:20;;;;;;;32.80;19.67;;;24.60;99.90;;;;;;4973823;28;20456;-53
2022/03/25 12:42:50;;;;;;;40.23;21.30;;;25.00;99.90;;;;;;4990367;28;20431;-53
2022/03/25 12:45:17;;;;;;;34.93;20.53;;;25.00;99.90;;;;;;4992677;28;20582;-53
2022/03/25 12:47:43;;;;;;;35.23;20.80;;;25.20;99.90;;;;;;4992003;28;20431;-53
2022/03/25 12:50:14;;;;;;;31.40;19.63;;;25.00;99.90;;;;;;4990628;28;20448;-53
2022/03/25 12:52:40;;;;;;;34.93;20.10;;;24.80;99.90;;;;;;4992088;28;20431;-53
2022/03/25 12:55:24;;;;;;;33.87;20.63;;;24.60;99.90;;;;;;4991082;28;20444;-53
2022/03/25 12:57:50;;;;;;;38.83;20.20;;;24.60;99.90;;;;;;4991714;28;20297;-53
2022/03/25 13:00:16;;;;;;;30.63;17.97;;;24.60;99.90;;;;;;4992253;28;20471;-52
2022/03/25 13:02:44;;;;;;;34.17;18.90;;;24.50;99.90;;;;;;4991829;28;20187;-52
2022/03/25 13:05:17;;;;;;;36.20;18.50;;;24.30;99.90;;;;;;4991502;28;20867;-52
2022/03/25 13:07:52;;;;;;;32.93;19.33;;;23.70;99.90;;;;;;4981423;28;20428;-52
2022/03/25 13:10:18;;;;;;;34.57;19.67;;;23.70;99.90;;;;;;4991931;28;20439;-52
2022/03/25 13:12:50;;;;;;;34.53;17.70;;;24.10;99.90;;;;;;4992086;28;20817;-52
2022/03/25 13:15:16;;;;;;;28.43;17.73;;;24.10;99.90;;;;;;4991213;28;20446;-52
2022/03/25 13:17:43;;;;;;;33.90;19.07;;;23.90;99.90;;;;;;4993276;28;20820;-52
2022/03/25 13:20:38;;;;;;;27.47;17.90;;;23.90;99.90;;;;;;4991294;28;20303;-51
2022/03/25 13:23:25;;;;;;;36.83;19.27;;;24.10;99.90;;;;;;4990813;28;20780;-51
2022/03/25 13:25:59;;;;;;;31.73;18.97;;;24.40;99.90;;;;;;4991169;28;20773;-51
2022/03/25 13:28:26;;;;;;;28.73;17.50;;;24.50;99.90;;;;;;4991159;28;20435;-50
2022/03/25 13:30:54;;;;;;;32.47;16.20;;;24.80;99.90;;;;;;4990177;28;20553;-50
2022/03/25 13:33:24;;;;;;;37.47;19.47;;;24.90;99.90;;;;;;4991563;28;20945;-50
2022/03/25 13:35:54;;;;;;;26.07;16.73;;;25.00;99.90;;;;;;4991255;28;20431;-51
2022/03/25 13:38:37;;;;;;;29.53;18.10;;;24.90;99.90;;;;;;4991350;28;20475;-51
2022/03/25 13:41:13;;;;;;;27.80;16.97;;;24.80;99.90;;;;;;4991395;28;20506;-51
2022/03/25 13:43:44;;;;;;;31.23;17.97;;;24.30;99.90;;;;;;4991571;28;20471;-51
2022/03/25 13:46:12;;;;;;;29.37;17.10;;;24.20;99.90;;;;;;4990959;28;20455;-51
2022/03/25 13:48:48;;;;;;;27.07;16.97;;;24.10;99.90;;;;;;4990281;28;20439;-51
2022/03/25 13:51:29;;;;;;;35.60;18.83;;;24.10;99.90;;;;;;4990925;28;20802;-51
2022/03/25 13:54:00;;;;;;;30.23;18.30;;;23.90;99.90;;;;;;4991282;28;20551;-51
2022/03/25 13:56:37;;;;;;;32.97;19.27;;;24.20;99.90;;;;;;4993858;28;20447;-52
2022/03/25 13:59:04;;;;;;;35.40;18.00;;;24.00;99.90;;;;;;4989881;28;20498;-51
2022/03/25 14:01:34;;;;;;;34.60;18.50;;;23.50;99.90;;;;;;4991338;28;20517;-52
2022/03/25 14:04:09;;;;;;;33.10;18.77;;;23.40;99.90;;;;;;4991871;28;20952;-51
2022/03/25 14:06:39;;;;;;;29.43;17.83;;;23.40;99.90;;;;;;4991654;28;20494;-51
2022/03/25 14:09:24;;;;;;;30.77;17.92;;;23.40;99.90;;;;;;4988632;28;20424;-52
2022/03/25 14:11:50;;;;;;;28.03;17.23;;;23.30;99.90;;;;;;4983971;28;20210;-52
2022/03/25 14:14:30;;;;;;;35.67;18.00;;;23.30;99.90;;;;;;4991012;28;20435;-51
2022/03/25 14:16:57;;;;;;;35.37;17.27;;;23.10;99.90;;;;;;4991322;28;20619;-52
2022/03/25 14:19:23;;;;;;;24.37;15.83;;;22.90;99.90;;;;;;4973283;28;20431;-52
2022/03/25 14:21:48;;;;;;;37.57;16.60;;;23.00;99.90;;;;;;4990631;28;20438;-51
2022/03/25 14:26:59;;;;;;;27.47;17.40;;;23.00;99.90;;;;;;4989156;28;20258;-51
2022/03/25 14:29:25;;;;;;;26.30;15.17;;;22.70;99.90;;;;;;4990332;28;20435;-52
2022/03/25 14:31:50;;;;;;;24.67;14.60;;;22.60;99.90;;;;;;4973018;28;20432;-52
2022/03/25 14:34:16;;;;;;;30.17;15.50;;;22.60;99.90;;;;;;4990668;28;20187;-52
2022/03/25 14:36:42;;;;;;;22.27;14.80;;;22.40;99.90;;;;;;4989677;28;20629;-51
2022/03/25 14:39:09;;;;;;;26.97;14.83;;;22.40;99.90;;;;;;4990995;28;20180;-52
2022/03/25 14:41:36;;;;;;;28.77;15.27;;;22.00;99.90;;;;;;4990314;28;21865;-51
2022/03/25 14:44:03;;;;;;;28.70;15.30;;;21.90;99.90;;;;;;4998102;28;20466;-52
2022/03/25 14:46:29;;;;;;;30.17;16.20;;;21.70;99.90;;;;;;4990986;28;20431;-51
2022/03/25 14:48:55;;;;;;;33.53;16.03;;;21.70;99.90;;;;;;4991755;28;20415;-51
2022/03/25 14:51:21;;;;;;;24.10;14.07;;;21.30;99.90;;;;;;4991079;28;20636;-51
2022/03/25 14:53:47;;;;;;;24.97;13.70;;;21.20;99.90;;;;;;4991329;28;20231;-51
2022/03/25 14:56:13;;;;;;;26.40;14.50;;;21.20;99.90;;;;;;4991782;28;20227;-52
2022/03/25 14:58:39;;;;;;;26.97;14.87;;;21.20;99.90;;;;;;4985424;28;20720;-51
2022/03/25 15:01:04;;;;;;;29.83;14.87;;;21.30;99.90;;;;;;4991532;28;20215;-51
2022/03/25 15:03:30;;;;;;;26.30;15.33;;;21.00;99.90;;;;;;5002107;28;20427;-51
2022/03/25 15:05:56;;;;;;;30.60;16.10;;;20.40;99.90;;;;;;4993441;28;20188;-51
2022/03/25 15:08:21;;;;;;;29.27;16.23;;;20.30;99.90;;;;;;4990549;28;20221;-51
2022/03/25 15:10:47;;;;;;;33.70;16.07;;;20.10;99.90;;;;;;4997716;28;20597;-51
2022/03/25 15:13:12;;;;;;;33.77;16.70;;;20.10;99.90;;;;;;4987685;28;20245;-51
2022/03/25 15:15:42;;;;;;;29.70;16.07;;;19.90;99.90;;;;;;4989153;28;20771;-51
2022/03/25 15:18:09;;;;;;;27.90;15.40;;;19.60;99.90;;;;;;4989169;28;20176;-51
2022/03/25 15:20:36;;;;;;;28.33;15.07;;;19.40;99.90;;;;;;4992069;28;20481;-51
2022/03/25 15:23:02;;;;;;;34.97;16.30;;;19.20;99.90;;;;;;4993609;28;20522;-51
2022/03/25 15:25:28;;;;;;;29.73;16.50;;;18.90;99.90;;;;;;4993622;28;20928;-51
2022/03/25 15:27:53;;;;;;;29.13;14.73;;;18.80;99.90;;;;;;4994340;28;20436;-51
2022/03/25 15:35:47;;;;;;;26.57;15.67;;;18.10;99.90;;;;;;4995520;28;20497;-51
2022/03/25 15:38:13;;;;;;;28.03;14.83;;;17.90;99.90;;;;;;4994260;28;20431;-51
2022/03/25 15:40:38;;;;;;;28.83;14.40;;;17.80;99.90;;;;;;4993551;28;20298;-51
2022/03/25 15:43:04;;;;;;;28.40;14.90;;;17.60;99.90;;;;;;4992590;28;20180;-50
2022/03/25 15:45:29;;;;;;;28.90;15.10;;;17.40;99.90;;;;;;4997536;28;20203;-51
2022/03/25 15:47:55;;;;;;;32.87;15.00;;;17.30;99.90;;;;;;4995001;28;20192;-51
2022/03/25 15:50:21;;;;;;;26.87;15.10;;;17.10;99.90;;;;;;4986406;28;20677;-51
2022/03/25 15:52:46;;;;;;;33.03;15.33;;;17.00;99.90;;;;;;4993762;28;20192;-51
2022/03/25 15:55:12;;;;;;;29.40;14.87;;;16.80;99.90;;;;;;4993141;28;20220;-51
2022/03/25 15:57:51;;;;;;;29.70;15.80;;;16.60;99.90;;;;;;4989492;28;20228;-50
2022/03/25 16:00:21;;;;;;;31.43;15.80;;;16.50;99.90;;;;;;4993327;28;20315;-51
2022/03/25 16:02:47;;;;;;;28.60;13.03;;;16.50;99.90;;;;;;4989382;28;20448;-51
2022/03/25 16:05:12;;;;;;;28.37;13.50;;;16.40;99.90;;;;;;4988778;28;20436;-51
2022/03/25 16:07:38;;;;;;;32.17;14.43;;;16.30;99.90;;;;;;4993019;28;20207;-51
2022/03/25 16:10:06;;;;;;;31.13;14.53;;;16.20;99.90;;;;;;4989558;28;20249;-51
2022/03/25 16:12:32;;;;;;;44.20;14.83;;;16.10;99.90;;;;;;4992764;28;20184;-51
2022/03/25 16:14:58;;;;;;;27.40;13.90;;;16.00;99.90;;;;;;4981769;28;20448;-50
2022/03/25 16:17:23;;;;;;;39.53;15.10;;;15.80;99.90;;;;;;4991883;28;20420;-53
2022/03/25 16:19:50;;;;;;;38.20;15.20;;;15.70;99.90;;;;;;4992255;28;20618;-53
2022/03/25 16:22:16;;;;;;;33.60;15.20;;;15.60;99.90;;;;;;4990133;28;20199;-53
2022/03/25 16:24:44;;;;;;;33.20;15.13;;;15.50;99.90;;;;;;4988700;28;20428;-53
2022/03/25 16:27:10;;;;;;;32.40;14.93;;;15.30;99.90;;;;;;4994101;28;20196;-53
2022/03/25 16:29:36;;;;;;;30.97;15.67;;;15.10;99.90;;;;;;4993450;28;21227;-53
2022/03/25 16:32:02;;;;;;;43.53;16.30;;;15.10;99.90;;;;;;4992997;28;20438;-53
2022/03/25 16:34:28;;;;;;;33.97;14.90;;;15.00;99.90;;;;;;5001373;28;20184;-53
2022/03/25 16:36:55;;;;;;;30.63;14.03;;;14.90;99.90;;;;;;4993689;28;20424;-53
2022/03/25 16:39:21;;;;;;;33.13;13.97;;;14.80;99.90;;;;;;4992057;28;20454;-53
2022/03/25 16:41:46;;;;;;;31.90;12.73;;;14.70;99.90;;;;;;4991620;28;20428;-53
2022/03/25 16:44:12;;;;;;;33.67;14.80;;;14.60;99.90;;;;;;4991241;28;20431;-53
2022/03/25 16:46:38;;;;;;;32.23;15.43;;;14.60;99.90;;;;;;4991227;28;20762;-54
2022/03/25 16:49:04;;;;;;;41.10;15.23;;;14.50;99.90;;;;;;4991794;28;20189;-54
2022/03/25 16:51:35;;;;;;;32.00;14.90;;;14.40;99.90;;;;;;4992936;28;20427;-55
2022/03/25 16:54:03;;;;;;;41.30;16.73;;;14.30;99.90;;;;;;4977011;28;20185;-55
2022/03/25 16:56:29;;;;;;;38.83;17.70;;;14.20;99.90;;;;;;4993560;28;20543;-55
2022/03/25 16:58:55;;;;;;;36.83;15.70;;;14.10;99.90;;;;;;4993317;28;20483;-55
2022/03/25 17:01:20;;;;;;;42.93;18.13;;;14.00;99.90;;;;;;4975316;28;20647;-54
2022/03/25 17:03:49;;;;;;;36.60;19.90;;;14.00;99.90;;;;;;4990849;28;20467;-54
2022/03/25 17:06:19;;;;;;;47.03;22.63;;;13.90;99.90;;;;;;4975301;28;20195;-54
2022/03/25 17:08:46;;;;;;;45.37;21.93;;;13.80;99.90;;;;;;4991733;28;20430;-53
2022/03/25 17:11:12;;;;;;;41.40;22.30;;;13.70;99.90;;;;;;4990339;28;20474;-54
2022/03/25 17:13:38;;;;;;;42.90;21.63;;;13.60;99.90;;;;;;4990659;28;20806;-53
2022/03/25 17:16:05;;;;;;;44.90;23.00;;;13.40;99.90;;;;;;4987832;28;20443;-53
2022/03/25 17:18:31;;;;;;;46.87;24.93;;;13.30;99.90;;;;;;4970169;28;20208;-54
2022/03/25 17:20:57;;;;;;;59.30;27.20;;;13.20;99.90;;;;;;4988039;28;20467;-54
2022/03/25 17:23:22;;;;;;;57.50;27.47;;;13.10;99.90;;;;;;4990077;28;20203;-54
2022/03/25 17:25:48;;;;;;;54.37;26.77;;;13.00;99.90;;;;;;4990884;28;20976;-53
2022/03/25 17:28:14;;;;;;;64.63;29.87;;;12.90;99.90;;;;;;4991359;28;20191;-54
2022/03/25 17:30:39;;;;;;;64.07;32.77;;;12.90;99.90;;;;;;4990420;28;20195;-54
2022/03/25 17:33:06;;;;;;;57.67;29.13;;;12.80;99.90;;;;;;4988770;28;20254;-54
2022/03/25 17:35:35;;;;;;;57.00;30.60;;;12.70;99.90;;;;;;4987736;28;20200;-54
2022/03/25 17:38:02;;;;;;;70.30;32.80;;;12.60;99.90;;;;;;4987861;28;20433;-53
2022/03/25 17:40:31;;;;;;;63.00;31.00;;;12.50;99.90;;;;;;4991041;28;20463;-54
2022/03/25 17:42:57;;;;;;;57.80;31.47;;;12.50;99.90;;;;;;4992306;28;20435;-54
2022/03/25 17:45:23;;;;;;;71.13;32.60;;;12.40;99.90;;;;;;4991594;28;20431;-53
2022/03/25 17:47:49;;;;;;;60.17;29.90;;;12.20;99.90;;;;;;4997649;28;20431;-53
2022/03/25 17:50:15;;;;;;;64.20;32.30;;;12.10;99.90;;;;;;4994257;28;20775;-54
2022/03/25 17:52:41;;;;;;;70.60;32.77;;;12.10;99.90;;;;;;4992371;28;20439;-53
2022/03/25 17:55:08;;;;;;;67.43;34.27;;;12.10;99.90;;;;;;4991593;28;20447;-53
2022/03/25 17:57:34;;;;;;;67.70;35.43;;;12.00;99.90;;;;;;4998184;28;20557;-53
2022/03/25 18:00:00;;;;;;;72.70;34.00;;;12.00;99.90;;;;;;4998291;28;21383;-53
2022/03/25 18:02:26;;;;;;;70.80;34.97;;;11.90;99.90;;;;;;4992311;28;20503;-54
2022/03/25 18:04:52;;;;;;;71.07;33.57;;;11.90;99.90;;;;;;4974594;28;20188;-53
2022/03/25 18:07:18;;;;;;;61.43;32.80;;;11.80;99.90;;;;;;4994417;28;20431;-53
2022/03/25 18:09:44;;;;;;;66.97;34.80;;;11.70;99.90;;;;;;4991727;28;20431;-53
2022/03/25 18:12:13;;;;;;;81.13;35.80;;;11.60;99.90;;;;;;4995568;28;20823;-53
2022/03/25 18:14:40;;;;;;;75.13;35.47;;;11.60;99.90;;;;;;4991811;28;20487;-53
2022/03/25 18:17:06;;;;;;;79.00;36.37;;;11.50;99.90;;;;;;4996868;28;20987;-53
2022/03/25 18:19:32;;;;;;;76.50;36.07;;;11.40;99.90;;;;;;4997447;28;20438;-53
2022/03/25 18:21:57;;;;;;;71.33;34.60;;;11.40;99.90;;;;;;4994575;28;20439;-53
2022/03/25 18:24:24;;;;;;;76.53;36.57;;;11.40;99.90;;;;;;4995832;28;20214;-53
2022/03/25 18:26:50;;;;;;;82.20;37.80;;;11.30;99.90;;;;;;5001073;28;20626;-51
2022/03/25 18:29:16;;;;;;;76.57;38.80;;;11.30;99.90;;;;;;4989494;28;20866;-50
2022/03/25 18:31:42;;;;;;;79.50;38.57;;;11.10;99.90;;;;;;4986819;28;20501;-51
2022/03/25 18:34:08;;;;;;;82.03;40.43;;;11.00;99.90;;;;;;4989818;28;20184;-50
2022/03/25 18:36:36;;;;;;;80.70;40.00;;;10.90;99.90;;;;;;4987482;28;20219;-50
2022/03/25 18:39:02;;;;;;;88.70;41.13;;;10.90;99.90;;;;;;4990044;28;20531;-51
2022/03/25 18:41:27;;;;;;;81.90;40.77;;;10.80;99.90;;;;;;4989062;28;20566;-65
2022/03/25 18:43:53;;;;;;;91.17;41.60;;;10.80;99.90;;;;;;4981335;28;20897;-52
2022/03/25 18:46:19;;;;;;;90.93;41.20;;;10.70;99.90;;;;;;4980804;28;20197;-51
2022/03/25 18:48:44;;;;;;;86.93;43.20;;;10.70;99.90;;;;;;4987905;28;20196;-50
2022/03/25 18:51:11;;;;;;;83.63;41.87;;;10.60;99.90;;;;;;4988312;28;20443;-50
2022/03/25 18:53:40;;;;;;;93.27;44.07;;;10.60;99.90;;;;;;4988986;28;20665;-50
2022/03/25 18:56:07;;;;;;;88.20;42.27;;;10.60;99.90;;;;;;4992387;28;20479;-51
2022/03/25 18:58:33;;;;;;;81.70;42.80;;;10.50;99.90;;;;;;4992988;28;20495;-51
2022/03/25 19:00:58;;;;;;;89.80;42.27;;;10.50;99.90;;;;;;4985403;28;20956;-50
2022/03/25 19:03:25;;;;;;;100.30;41.67;;;10.40;99.90;;;;;;4992926;28;20243;-51
2022/03/25 19:05:51;;;;;;;96.97;43.93;;;10.40;99.90;;;;;;4992531;28;20187;-51
2022/03/25 19:08:17;;;;;;;91.23;43.47;;;10.20;99.90;;;;;;4988792;28;20458;-51
2022/03/25 19:10:43;;;;;;;91.10;42.83;;;10.00;99.90;;;;;;4991803;28;20435;-51
2022/03/25 19:13:08;;;;;;;98.67;45.97;;;9.90;99.90;;;;;;4991216;28;20439;-51
2022/03/25 19:15:34;;;;;;;88.53;42.10;;;9.90;99.90;;;;;;4991310;28;20205;-51
2022/03/25 19:18:00;;;;;;;100.60;45.97;;;9.90;99.90;;;;;;4995548;28;20193;-53
2022/03/25 19:20:26;;;;;;;92.27;43.97;;;9.80;99.90;;;;;;4993992;28;20685;-54
2022/03/25 19:22:55;;;;;;;97.27;45.40;;;9.70;99.90;;;;;;4993121;28;20172;-53
2022/03/25 19:25:24;;;;;;;93.53;44.63;;;9.70;99.90;;;;;;4991961;28;21055;-54
2022/03/25 19:27:51;;;;;;;96.90;45.67;;;9.60;99.90;;;;;;4992046;28;20444;-57
2022/03/25 19:30:17;;;;;;;99.63;47.00;;;9.60;99.90;;;;;;4991150;28;20447;-53
2022/03/25 19:32:44;;;;;;;121.13;47.27;;;9.60;99.90;;;;;;4990638;28;20439;-54
2022/03/25 19:35:11;;;;;;;101.23;48.23;;;9.60;99.90;;;;;;4990654;28;20763;-53
2022/03/25 19:37:37;;;;;;;101.43;45.73;;;9.60;99.90;;;;;;4986465;28;20517;-54
2022/03/25 19:40:09;;;;;;;104.03;45.97;;;9.40;99.90;;;;;;4994293;28;20514;-54
2022/03/25 19:42:38;;;;;;;104.90;46.70;;;9.40;99.90;;;;;;4990895;28;20440;-54
2022/03/25 19:45:05;;;;;;;118.27;48.60;;;9.20;99.90;;;;;;4988302;28;20493;-53
2022/03/25 19:47:31;;;;;;;103.53;45.37;;;9.20;99.90;;;;;;4984846;28;20961;-53
2022/03/25 19:49:58;;;;;;;100.70;47.13;;;9.20;99.90;;;;;;4992497;28;20493;-54
2022/03/25 19:52:25;;;;;;;113.27;49.47;;;9.10;99.90;;;;;;4990407;28;20611;-54
2022/03/25 19:54:52;;;;;;;115.33;49.70;;;9.00;99.90;;;;;;4990907;28;20525;-53
2022/03/25 19:57:18;;;;;;;114.63;50.63;;;9.00;99.90;;;;;;4989757;28;20483;-53
2022/03/25 19:59:44;;;;;;;107.80;48.13;;;9.00;99.90;;;;;;4990052;28;20452;-54
2022/03/25 20:02:13;;;;;;;116.73;53.00;;;8.90;99.90;;;;;;4984093;28;20798;-53
2022/03/25 20:04:41;;;;;;;114.47;52.60;;;8.90;99.90;;;;;;4986725;28;20197;-53
2022/03/25 20:07:08;;;;;;;125.30;52.33;;;8.80;99.90;;;;;;4988446;28;20764;-54
2022/03/25 20:09:33;;;;;;;114.97;50.73;;;8.80;99.90;;;;;;4982686;28;20952;-53
2022/03/25 20:12:04;;;;;;;119.87;50.87;;;8.80;99.90;;;;;;4986968;28;20448;-54
2022/03/25 20:14:30;;;;;;;117.40;50.70;;;8.80;99.90;;;;;;4979500;28;20219;-54
2022/03/25 20:16:57;;;;;;;116.33;51.37;;;8.70;99.90;;;;;;4984882;28;20454;-54
2022/03/25 20:19:23;;;;;;;123.17;52.77;;;8.70;99.90;;;;;;4990873;28;20442;-54
2022/03/25 20:21:49;;;;;;;125.63;53.63;;;8.60;99.90;;;;;;4987321;28;20479;-53
2022/03/25 20:24:15;;;;;;;133.60;54.93;;;8.60;99.90;;;;;;4984277;28;20489;-54
2022/03/25 20:26:40;;;;;;;127.40;53.50;;;8.60;99.90;;;;;;4991072;28;20212;-54
2022/03/25 20:29:07;;;;;;;127.00;56.00;;;8.50;99.90;;;;;;4992857;28;21891;-54
2022/03/25 20:31:33;;;;;;;140.67;55.57;;;8.40;99.90;;;;;;4988069;28;20199;-53
2022/03/25 20:34:00;;;;;;;135.53;57.20;;;8.40;99.90;;;;;;4988842;28;20445;-59
2022/03/25 20:36:26;;;;;;;138.30;57.47;;;8.40;99.90;;;;;;4986683;28;20526;-53
2022/03/25 20:38:53;;;;;;;146.10;57.60;;;8.40;99.90;;;;;;4990026;28;20589;-53
2022/03/25 20:41:19;;;;;;;147.53;58.80;;;8.30;99.90;;;;;;4992486;28;20565;-53
2022/03/25 20:43:45;;;;;;;143.10;56.50;;;8.30;99.90;;;;;;4972540;28;20431;-54